PWSweather.com
Personal Weather Stations
Station Observations
CAPEBRETON
Mira Road, Sydney, NS

Mira RoadSydney, NS

Lat: 46.1207292, Lon: -60.1594642

Elevation: 175

Station Type: LaCrosse Weather Pro Center 2800 Series

http://pwscapebreton.weebly.com/

Latest ConditionsUpdated 3:26:01 AM GMT-04:56 Saturday, Nov 1, 2014
Currently Today's Max Today's Min Today's Average
Temperature 36.2°F2.3°C 36.2°F2.3°C 34.9°F1.6°C 35.5°F1.9°C
Dew Point 33.2°F0.7°C 33.2°F0.7°C 31.1°F-0.5°C 32.3°F0.2°C
Winds Calm Calm 1.5 mph SW2.4 kmh SW - 0.4 mph 0.6 kmh
Wind Gusts 0.4 mph0.6 kmh 2.0 mph3.2 kmh - -
Humidity 89% 89% 86% 88%
Pressure 30.09 in1019.0 mb 30.12 in1020.0 mb 30.08 in1018.6 mb -
Hour Temp Dew Point Humidity Winds Wind Gusts Pressure Precip Precip Rate Daily Precip Total
03:26 AM 36.2°F2.3°C 33.2°F0.7°C 89% Calm Calm 0.4 mph0.6 kmh 30.09 in1019.0 mb 0.00 in0.0 mm 0.00 in/hr0.0 mm/hr 0.00 in0.0 mm
03:21 AM 36.2°F2.3°C 33.2°F0.7°C 89% Calm Calm 0.9 mph1.4 kmh 30.09 in1019.0 mb 0.00 in0.0 mm 0.00 in/hr0.0 mm/hr 0.00 in0.0 mm
03:15 AM 36.2°F2.3°C 33.2°F0.7°C 89% 0.5 mph SW0.8 kmh SW 1.8 mph2.9 kmh 30.09 in1019.0 mb 0.00 in0.0 mm 0.00 in/hr0.0 mm/hr 0.00 in0.0 mm
03:11 AM 36.0°F2.2°C 33.0°F0.6°C 89% 0.9 mph SW1.4 kmh SW 1.8 mph2.9 kmh 30.09 in1019.0 mb 0.00 in0.0 mm 0.00 in/hr0.0 mm/hr 0.00 in0.0 mm
03:05 AM 36.0°F2.2°C 33.0°F0.6°C 89% Calm Calm 1.1 mph1.8 kmh 30.08 in1018.6 mb 0.00 in0.0 mm 0.00 in/hr0.0 mm/hr 0.00 in0.0 mm
03:00 AM 35.8°F2.1°C 32.9°F0.5°C 89% 0.5 mph SW0.8 kmh SW 1.1 mph1.8 kmh 30.08 in1018.6 mb 0.00 in0.0 mm 0.00 in/hr0.0 mm/hr 0.00 in0.0 mm
02:55 AM 35.8°F2.1°C 32.9°F0.5°C 89% Calm Calm 0.7 mph1.1 kmh 30.08 in1018.6 mb 0.00 in0.0 mm 0.00 in/hr0.0 mm/hr 0.00 in0.0 mm
02:50 AM 35.8°F2.1°C 32.9°F0.5°C 89% 0.7 mph SSW1.1 kmh SSW 0.7 mph1.1 kmh 30.08 in1018.6 mb 0.00 in0.0 mm 0.00 in/hr0.0 mm/hr 0.00 in0.0 mm
02:45 AM 35.8°F2.1°C 32.9°F0.5°C 89% 0.2 mph SSE0.3 kmh SSE 0.4 mph0.6 kmh 30.08 in1018.6 mb 0.00 in0.0 mm 0.00 in/hr0.0 mm/hr 0.00 in0.0 mm
02:40 AM 35.6°F2.0°C 32.7°F0.4°C 89% Calm Calm -- 30.09 in1019.0 mb 0.00 in0.0 mm 0.00 in/hr0.0 mm/hr 0.00 in0.0 mm
02:35 AM 35.6°F2.0°C 32.7°F0.4°C 89% Calm Calm -- 30.09 in1019.0 mb 0.00 in0.0 mm 0.00 in/hr0.0 mm/hr 0.00 in0.0 mm
02:30 AM 35.5°F1.9°C 32.5°F0.3°C 89% Calm Calm 1.1 mph1.8 kmh 30.09 in1019.0 mb 0.00 in0.0 mm 0.00 in/hr0.0 mm/hr 0.00 in0.0 mm
02:25 AM 35.5°F1.9°C 32.5°F0.3°C 89% Calm Calm 1.1 mph1.8 kmh 30.09 in1019.0 mb 0.00 in0.0 mm 0.00 in/hr0.0 mm/hr 0.00 in0.0 mm
02:20 AM 35.5°F1.9°C 32.2°F0.1°C 88% 0.8 mph SSW1.3 kmh SSW 1.1 mph1.8 kmh 30.09 in1019.0 mb 0.00 in0.0 mm 0.00 in/hr0.0 mm/hr 0.00 in0.0 mm
02:15 AM 35.6°F2.0°C 32.4°F0.2°C 88% Calm Calm -- 30.08 in1018.6 mb 0.00 in0.0 mm 0.00 in/hr0.0 mm/hr 0.00 in0.0 mm
02:10 AM 35.6°F2.0°C 32.4°F0.2°C 88% Calm Calm 0.2 mph0.3 kmh 30.09 in1019.0 mb 0.00 in0.0 mm 0.00 in/hr0.0 mm/hr 0.00 in0.0 mm
02:05 AM 35.8°F2.1°C 32.6°F0.3°C 88% Calm Calm 0.2 mph0.3 kmh 30.10 in1019.3 mb 0.00 in0.0 mm 0.00 in/hr0.0 mm/hr 0.00 in0.0 mm
02:00 AM 35.6°F2.0°C 32.4°F0.2°C 88% 0.2 mph SSE0.3 kmh SSE 0.4 mph0.6 kmh 30.11 in1019.6 mb 0.00 in0.0 mm 0.00 in/hr0.0 mm/hr 0.00 in0.0 mm
01:55 AM 35.6°F2.0°C 32.4°F0.2°C 88% 0.3 mph SSW0.5 kmh SSW 0.4 mph0.6 kmh 30.11 in1019.6 mb 0.00 in0.0 mm 0.00 in/hr0.0 mm/hr 0.00 in0.0 mm
01:50 AM 35.6°F2.0°C 32.4°F0.2°C 88% 0.2 mph SW0.3 kmh SW 0.7 mph1.1 kmh 30.11 in1019.6 mb 0.00 in0.0 mm 0.00 in/hr0.0 mm/hr 0.00 in0.0 mm
01:45 AM 35.6°F2.0°C 32.4°F0.2°C 88% 0.4 mph SSE0.6 kmh SSE 0.7 mph1.1 kmh 30.10 in1019.3 mb 0.00 in0.0 mm 0.00 in/hr0.0 mm/hr 0.00 in0.0 mm
01:40 AM 35.5°F1.9°C 32.2°F0.1°C 88% 0.2 mph SSW0.3 kmh SSW 0.7 mph1.1 kmh 30.10 in1019.3 mb 0.00 in0.0 mm 0.00 in/hr0.0 mm/hr 0.00 in0.0 mm
01:35 AM 35.6°F2.0°C 32.4°F0.2°C 88% 0.6 mph SE1.0 kmh SE 0.7 mph1.1 kmh 30.10 in1019.3 mb 0.00 in0.0 mm 0.00 in/hr0.0 mm/hr 0.00 in0.0 mm
01:30 AM 35.6°F2.0°C 32.4°F0.2°C 88% Calm Calm 1.1 mph1.8 kmh 30.10 in1019.3 mb 0.00 in0.0 mm 0.00 in/hr0.0 mm/hr 0.00 in0.0 mm
01:25 AM 35.5°F1.9°C 32.2°F0.1°C 88% Calm Calm 1.8 mph2.9 kmh 30.11 in1019.6 mb 0.00 in0.0 mm 0.00 in/hr0.0 mm/hr 0.00 in0.0 mm
01:20 AM 35.3°F1.8°C 32.1°F0.1°C 88% 0.8 mph SW1.3 kmh SW 1.8 mph2.9 kmh 30.11 in1019.6 mb 0.00 in0.0 mm 0.00 in/hr0.0 mm/hr 0.00 in0.0 mm
01:15 AM 35.3°F1.8°C 32.1°F0.1°C 88% 0.8 mph SW1.3 kmh SW 1.1 mph1.8 kmh 30.11 in1019.6 mb 0.00 in0.0 mm 0.00 in/hr0.0 mm/hr 0.00 in0.0 mm
01:10 AM 35.3°F1.8°C 32.1°F0.1°C 88% 0.2 mph SW0.3 kmh SW 0.9 mph1.4 kmh 30.10 in1019.3 mb 0.00 in0.0 mm 0.00 in/hr0.0 mm/hr 0.00 in0.0 mm
01:05 AM 35.3°F1.8°C 32.1°F0.1°C 88% 0.3 mph SW0.5 kmh SW 0.9 mph1.4 kmh 30.11 in1019.6 mb 0.00 in0.0 mm 0.00 in/hr0.0 mm/hr 0.00 in0.0 mm
01:00 AM 35.3°F1.8°C 32.1°F0.1°C 88% 0.3 mph S0.5 kmh S 1.8 mph2.9 kmh 30.12 in1020.0 mb 0.00 in0.0 mm 0.00 in/hr0.0 mm/hr 0.00 in0.0 mm
12:55 AM 35.5°F1.9°C 32.2°F0.1°C 88% 0.8 mph SW1.3 kmh SW 2.0 mph3.2 kmh 30.12 in1020.0 mb 0.00 in0.0 mm 0.00 in/hr0.0 mm/hr 0.00 in0.0 mm
12:50 AM 35.3°F1.8°C 32.1°F0.1°C 88% 1.5 mph SW2.4 kmh SW 2.0 mph3.2 kmh 30.12 in1020.0 mb 0.00 in0.0 mm 0.00 in/hr0.0 mm/hr 0.00 in0.0 mm
12:45 AM 35.3°F1.8°C 32.1°F0.1°C 88% 0.7 mph SW1.1 kmh SW 1.3 mph2.1 kmh 30.11 in1019.6 mb 0.00 in0.0 mm 0.00 in/hr0.0 mm/hr 0.00 in0.0 mm
12:40 AM 35.1°F1.7°C 31.9°F-0.1°C 88% 0.6 mph SW1.0 kmh SW 1.1 mph1.8 kmh 30.10 in1019.3 mb 0.00 in0.0 mm 0.00 in/hr0.0 mm/hr 0.00 in0.0 mm
12:35 AM 34.9°F1.6°C 31.3°F-0.4°C 87% 0.2 mph SSW0.3 kmh SSW 0.4 mph0.6 kmh 30.10 in1019.3 mb 0.00 in0.0 mm 0.00 in/hr0.0 mm/hr 0.00 in0.0 mm
12:30 AM 34.9°F1.6°C 31.3°F-0.4°C 87% Calm Calm 0.4 mph0.6 kmh 30.10 in1019.3 mb 0.00 in0.0 mm 0.00 in/hr0.0 mm/hr 0.00 in0.0 mm
12:25 AM 34.9°F1.6°C 31.3°F-0.4°C 87% 0.3 mph SW0.5 kmh SW 0.9 mph1.4 kmh 30.10 in1019.3 mb 0.00 in0.0 mm 0.00 in/hr0.0 mm/hr 0.00 in0.0 mm
12:20 AM 34.9°F1.6°C 31.1°F-0.5°C 86% Calm Calm 1.1 mph1.8 kmh 30.10 in1019.3 mb 0.00 in0.0 mm 0.00 in/hr0.0 mm/hr 0.00 in0.0 mm
12:15 AM 35.1°F1.7°C 31.2°F-0.4°C 86% 0.6 mph SSW1.0 kmh SSW 1.6 mph2.6 kmh 30.11 in1019.6 mb 0.00 in0.0 mm 0.00 in/hr0.0 mm/hr 0.00 in0.0 mm
12:10 AM 35.3°F1.8°C 31.7°F-0.2°C 87% 1.1 mph SW1.8 kmh SW 1.6 mph2.6 kmh 30.11 in1019.6 mb 0.00 in0.0 mm 0.00 in/hr0.0 mm/hr 0.00 in0.0 mm
12:04 AM 35.6°F2.0°C 32.0°F0.0°C 87% 0.7 mph SW1.1 kmh SW 2.0 mph3.2 kmh 30.11 in1019.6 mb 0.00 in0.0 mm 0.00 in/hr0.0 mm/hr 0.00 in0.0 mm